Time;durP1;ratioP1;P1;durP2;ratioP2;P2;SDS_P1;SDS_P2;PMS_P1;PMS_P2;Temp;Humidity;BMP_temperature;BMP_pressure;BME280_temperature;BME280_humidity;BME280_pressure;Samples;Min_cycle;Max_cycle;Signal;HPM_P1;HPM_P2
2021/10/04 00:01:05;;;;;;;3.88;2.53;;;;;;;8.44;78.56;95832.25;5105552;28;20076;-69
2021/10/04 00:03:33;;;;;;;4.40;2.67;;;;;;;8.40;78.60;95828.41;5105388;28;20101;-69
2021/10/04 00:06:00;;;;;;;10.43;3.42;;;;;;;8.33;78.17;95827.59;5105843;28;20069;-69
2021/10/04 00:08:27;;;;;;;4.95;3.38;;;;;;;8.16;77.65;95814.94;5103944;28;20118;-69
2021/10/04 00:10:54;;;;;;;4.85;2.95;;;;;;;8.05;77.86;95823.25;5105277;28;20573;-69
2021/10/04 00:13:21;;;;;;;8.90;3.42;;;;;;;7.83;77.89;95804.34;5105389;28;20043;-69
2021/10/04 00:15:48;;;;;;;4.28;3.08;;;;;;;7.71;78.42;95806.66;5105309;28;20039;-69
2021/10/04 00:18:15;;;;;;;5.53;3.53;;;;;;;7.70;79.01;95815.41;5109794;28;20067;-69
2021/10/04 00:20:42;;;;;;;4.00;2.42;;;;;;;7.62;79.37;95818.16;5106919;28;20471;-69
2021/10/04 00:23:09;;;;;;;7.80;3.97;;;;;;;7.51;79.98;95816.06;5109345;27;20474;-69
2021/10/04 00:25:36;;;;;;;6.72;3.60;;;;;;;7.39;80.81;95813.97;5108821;28;20039;-69
2021/10/04 00:28:04;;;;;;;4.68;3.10;;;;;;;7.24;81.53;95805.50;5120148;27;20043;-69
2021/10/04 00:30:31;;;;;;;6.10;3.30;;;;;;;7.32;81.42;95807.94;5128851;27;20397;-69
2021/10/04 00:32:57;;;;;;;8.65;3.03;;;;;;;7.46;81.41;95816.63;5086519;28;20491;-69
2021/10/04 00:35:26;;;;;;;6.82;2.78;;;;;;;7.50;81.01;95815.25;5109058;27;20100;-69
2021/10/04 00:37:54;;;;;;;4.07;3.10;;;;;;;7.52;81.33;95809.91;5116377;27;20511;-69
2021/10/04 00:40:24;;;;;;;5.53;3.00;;;;;;;7.52;80.96;95822.88;5128873;27;20461;-69
2021/10/04 00:42:51;;;;;;;8.25;3.53;;;;;;;7.43;80.42;95804.03;5107390;28;20416;-69
2021/10/04 00:45:18;;;;;;;5.22;2.88;;;;;;;7.49;80.56;95812.84;5108794;28;20163;-69
2021/10/04 00:47:46;;;;;;;5.63;3.13;;;;;;;7.51;80.87;95805.69;5108474;28;20035;-69
2021/10/04 00:50:14;;;;;;;7.22;4.32;;;;;;;7.47;80.93;95800.06;5109336;27;20039;-69
2021/10/04 00:52:41;;;;;;;5.13;3.38;;;;;;;7.53;80.71;95803.75;5128630;27;20031;-69
2021/10/04 00:55:09;;;;;;;6.57;3.00;;;;;;;7.50;81.18;95804.09;5128872;27;20443;-69
2021/10/04 00:57:37;;;;;;;6.63;2.80;;;;;;;7.43;80.97;95796.25;5117825;27;20432;-69
2021/10/04 01:00:07;;;;;;;4.38;2.88;;;;;;;7.56;81.21;95809.34;5120931;27;20096;-69
2021/10/04 01:02:34;;;;;;;4.70;2.67;;;;;;;7.59;80.97;95802.97;5118808;27;21541;-69
2021/10/04 01:05:03;;;;;;;5.22;2.85;;;;;;;7.52;81.41;95799.53;5128427;27;20035;-69
2021/10/04 01:07:30;;;;;;;5.18;3.08;;;;;;;7.49;81.31;95798.13;5126937;27;20042;-69
2021/10/04 01:09:57;;;;;;;6.50;3.28;;;;;;;7.52;80.98;95807.31;5128329;27;20537;-69
2021/10/04 01:12:25;;;;;;;5.30;2.97;;;;;;;7.45;81.38;95808.06;5107051;27;20051;-68
2021/10/04 01:14:52;;;;;;;6.47;3.58;;;;;;;7.34;81.38;95800.78;5128600;27;20042;-68
2021/10/04 01:17:18;;;;;;;4.93;2.85;;;;;;;7.31;80.74;95802.94;5128430;27;20096;-69
2021/10/04 01:19:45;;;;;;;4.97;2.88;;;;;;;7.25;81.22;95799.31;5128123;27;20043;-68
2021/10/04 01:22:12;;;;;;;4.80;2.88;;;;;;;7.11;80.81;95795.00;5126406;27;20060;-69
2021/10/04 01:24:39;;;;;;;5.13;3.30;;;;;;;7.07;81.10;95800.53;5127947;27;20066;-69
2021/10/04 01:27:06;;;;;;;6.80;3.15;;;;;;;6.94;81.58;95784.09;5128373;27;20047;-69
2021/10/04 01:29:33;;;;;;;4.20;2.55;;;;;;;6.98;82.01;95801.63;5106865;27;20044;-69
2021/10/04 01:32:00;;;;;;;4.35;2.58;;;;;;;6.69;82.71;95777.44;5107727;28;20043;-69
2021/10/04 01:34:26;;;;;;;5.18;3.42;;;;;;;6.87;83.87;95799.53;5115202;27;20077;-69
2021/10/04 01:36:53;;;;;;;5.88;2.83;;;;;;;6.89;85.24;95800.16;5117897;27;20113;-69
2021/10/04 01:39:20;;;;;;;5.97;2.83;;;;;;;6.88;86.25;95798.56;5107686;28;20047;-69
2021/10/04 01:41:47;;;;;;;4.22;2.90;;;;;;;6.91;86.55;95795.59;5114612;27;20509;-69
2021/10/04 01:44:14;;;;;;;3.20;2.22;;;;;;;6.89;86.56;95800.16;5106890;28;20108;-69
2021/10/04 01:46:40;;;;;;;6.68;3.33;;;;;;;6.88;85.97;95806.34;5107882;27;20039;-69
2021/10/04 01:49:08;;;;;;;7.38;3.65;;;;;;;6.67;85.89;95789.78;5127413;27;20042;-69
2021/10/04 01:51:35;;;;;;;5.10;2.78;;;;;;;6.68;85.86;95809.50;5127669;27;20058;-69
2021/10/04 01:54:02;;;;;;;5.57;4.20;;;;;;;6.62;86.12;95802.44;5127312;27;20123;-69
2021/10/04 01:56:29;;;;;;;8.00;4.22;;;;;;;6.44;86.27;95778.75;5109116;27;20424;-69
2021/10/04 01:58:55;;;;;;;12.20;3.60;;;;;;;6.57;86.08;95789.28;5120141;27;20468;-69
2021/10/04 02:01:22;;;;;;;8.23;4.63;;;;;;;6.53;86.11;95798.38;5126118;27;20035;-69
2021/10/04 02:03:50;;;;;;;8.52;4.32;;;;;;;6.48;85.57;95795.53;5127323;27;20084;-69
2021/10/04 02:06:17;;;;;;;6.10;3.75;;;;;;;6.31;85.02;95785.38;5126250;27;20047;-69
2021/10/04 02:08:44;;;;;;;8.60;4.35;;;;;;;6.42;84.46;95811.78;5115399;27;20042;-70
2021/10/04 02:11:11;;;;;;;4.32;2.78;;;;;;;6.39;83.85;95812.13;5127105;27;20043;-69
2021/10/04 02:13:38;;;;;;;4.75;3.63;;;;;;;6.35;84.06;95805.72;5127257;27;20047;-69
2021/10/04 02:16:05;;;;;;;7.25;3.30;;;;;;;6.21;83.90;95790.03;5127104;27;20159;-70
2021/10/04 02:18:32;;;;;;;7.13;3.70;;;;;;;6.25;85.29;95804.22;5126906;27;20043;-69
2021/10/04 02:20:59;;;;;;;6.20;3.42;;;;;;;6.18;85.91;95811.09;5111790;27;20055;-69
2021/10/04 02:23:26;;;;;;;5.82;4.25;;;;;;;6.10;86.70;95808.56;5107465;27;20039;-69
2021/10/04 02:25:53;;;;;;;6.05;3.85;;;;;;;6.05;87.15;95811.72;5106761;28;20043;-69
2021/10/04 02:28:20;;;;;;;6.43;3.28;;;;;;;6.04;87.26;95809.31;5107010;27;20108;-69
2021/10/04 02:30:48;;;;;;;6.65;3.85;;;;;;;6.03;87.32;95813.69;5124739;27;20039;-69
2021/10/04 02:33:15;;;;;;;6.32;3.50;;;;;;;5.93;87.30;95806.13;5105713;28;20047;-69
2021/10/04 02:35:42;;;;;;;9.73;3.55;;;;;;;5.94;87.21;95805.19;5106975;27;20051;-69
2021/10/04 02:38:09;;;;;;;5.35;3.78;;;;;;;5.93;86.91;95811.31;5118412;27;20428;-69
2021/10/04 02:40:36;;;;;;;6.97;3.35;;;;;;;5.90;86.39;95809.06;5126589;27;20039;-69
2021/10/04 02:43:07;;;;;;;6.00;3.58;;;;;;;5.87;86.52;95814.63;5106082;27;20048;-69
2021/10/04 02:45:35;;;;;;;10.15;3.13;;;;;;;5.65;87.42;95780.06;5087893;28;20044;-69
2021/10/04 02:48:04;;;;;;;8.40;3.92;;;;;;;5.91;87.88;95815.88;5106641;28;20398;-70
2021/10/04 02:50:31;;;;;;;6.75;4.85;;;;;;;5.83;89.76;95810.75;5109106;27;20058;-69
2021/10/04 02:52:57;;;;;;;10.20;4.18;;;;;;;5.67;90.44;95808.34;5126690;27;20074;-69
2021/10/04 02:55:24;;;;;;;5.72;4.03;;;;;;;5.68;92.28;95809.94;5118937;27;20057;-69
2021/10/04 02:57:51;;;;;;;7.15;3.95;;;;;;;5.72;93.53;95811.19;5087600;28;20054;-69
2021/10/04 03:00:32;;;;;;;5.38;3.10;;;;;;;5.68;95.09;95815.13;5106277;28;20419;-69
2021/10/04 03:02:59;;;;;;;7.38;4.03;;;;;;;5.74;95.31;95817.00;5105930;28;20590;-69
2021/10/04 03:05:26;;;;;;;7.82;4.78;;;;;;;5.74;95.55;95819.56;5126211;27;20126;-69
2021/10/04 03:07:53;;;;;;;6.15;4.03;;;;;;;5.76;94.85;95827.94;5122257;27;20104;-69
2021/10/04 03:10:20;;;;;;;7.38;3.83;;;;;;;5.68;94.71;95820.28;5105882;28;20054;-69
2021/10/04 03:12:46;;;;;;;7.40;4.10;;;;;;;5.61;93.45;95807.25;5104727;28;20044;-70
2021/10/04 03:15:13;;;;;;;7.70;3.95;;;;;;;5.68;91.93;95830.63;5106001;28;20043;-69
2021/10/04 03:17:40;;;;;;;8.23;4.22;;;;;;;5.65;90.32;95830.97;5105818;28;20066;-69
2021/10/04 03:20:07;;;;;;;6.40;3.80;;;;;;;5.55;89.45;95824.28;5106177;28;20043;-69
2021/10/04 03:22:34;;;;;;;6.60;4.38;;;;;;;5.44;90.40;95819.53;5106707;27;20044;-69
2021/10/04 03:25:02;;;;;;;9.07;4.45;;;;;;;5.44;89.49;95823.88;5111047;27;20499;-69
2021/10/04 03:27:28;;;;;;;7.03;4.40;;;;;;;5.39;88.95;95821.81;5125402;27;20050;-69
2021/10/04 03:29:55;;;;;;;7.60;4.22;;;;;;;5.32;88.44;95818.34;5124994;27;20039;-69
2021/10/04 03:32:22;;;;;;;9.57;3.97;;;;;;;5.31;88.21;95819.28;5107793;27;20036;-69
2021/10/04 03:34:49;;;;;;;7.93;4.47;;;;;;;5.28;88.32;95824.81;5107747;28;20044;-69
2021/10/04 03:37:16;;;;;;;9.48;4.78;;;;;;;5.15;88.59;95810.72;5124898;28;20051;-69
2021/10/04 03:39:45;;;;;;;11.52;5.28;;;;;;;5.24;89.09;95823.53;5123895;28;20504;-69
2021/10/04 03:42:12;;;;;;;7.70;4.13;;;;;;;5.20;89.02;95822.28;5115229;28;20040;-69
2021/10/04 03:44:39;;;;;;;8.40;4.30;;;;;;;5.14;88.76;95829.75;5105645;28;20046;-70
2021/10/04 03:47:05;;;;;;;7.88;4.50;;;;;;;5.11;89.30;95829.28;5117805;28;20043;-70
2021/10/04 03:49:33;;;;;;;7.32;4.50;;;;;;;4.91;89.35;95797.97;5125948;28;20088;-69
2021/10/04 03:52:01;;;;;;;6.18;4.03;;;;;;;5.02;89.67;95827.75;5125137;28;20107;-69
2021/10/04 03:54:29;;;;;;;9.40;4.65;;;;;;;5.05;90.22;95825.63;5119652;27;21989;-69
2021/10/04 03:56:56;;;;;;;12.57;5.18;;;;;;;4.90;90.48;95796.38;5109552;28;20043;-69
2021/10/04 03:59:22;;;;;;;9.07;4.70;;;;;;;5.07;90.28;95822.88;5109586;28;20496;-69
2021/10/04 04:01:49;;;;;;;8.23;5.00;;;;;;;4.98;89.70;95816.94;5109901;28;20043;-69
2021/10/04 04:04:16;;;;;;;10.23;5.10;;;;;;;5.05;89.62;95820.47;5120032;27;20536;-69
2021/10/04 04:06:43;;;;;;;7.85;4.47;;;;;;;5.15;90.07;95826.19;5109066;28;20043;-69
2021/10/04 04:09:10;;;;;;;8.90;4.88;;;;;;;5.17;89.51;95824.25;5096304;27;20043;-69
2021/10/04 04:11:37;;;;;;;10.27;4.95;;;;;;;5.08;88.69;95804.63;5129407;27;20522;-69
2021/10/04 04:14:04;;;;;;;12.25;5.88;;;;;;;5.17;87.98;95826.03;5096112;28;20096;-69
2021/10/04 04:16:31;;;;;;;7.88;4.32;;;;;;;5.11;88.08;95839.63;5096263;27;20039;-70
2021/10/04 04:18:58;;;;;;;10.30;5.15;;;;;;;5.10;87.84;95843.19;5129471;27;20068;-69
2021/10/04 04:21:25;;;;;;;15.45;5.93;;;;;;;4.99;87.83;95831.47;5129683;27;20643;-69
2021/10/04 04:24:16;;;;;;;9.60;5.25;;;;;;;5.05;88.40;95841.09;5129173;27;20061;-70
2021/10/04 04:26:45;;;;;;;10.80;5.65;;;;;;;5.02;88.17;95831.13;5119447;27;20054;-70
2021/10/04 04:29:12;;;;;;;7.93;5.05;;;;;;;4.91;88.47;95834.09;5118856;27;20472;-70
2021/10/04 04:31:42;;;;;;;8.23;5.40;;;;;;;4.90;88.81;95842.84;5115748;27;20032;-70
2021/10/04 04:34:09;;;;;;;9.15;5.25;;;;;;;4.90;89.04;95848.00;5110233;27;20035;-70
2021/10/04 04:36:35;;;;;;;7.68;5.05;;;;;;;4.87;89.44;95845.75;5108960;27;20096;-70
2021/10/04 04:39:02;;;;;;;9.10;5.63;;;;;;;4.74;89.56;95829.03;5112127;27;20519;-70
2021/10/04 04:41:29;;;;;;;10.73;5.25;;;;;;;4.88;90.26;95855.09;5126820;27;20389;-70
2021/10/04 04:43:56;;;;;;;12.48;6.43;;;;;;;4.88;90.58;95860.25;5108487;27;20050;-70
2021/10/04 04:46:23;;;;;;;13.13;7.85;;;;;;;4.84;91.12;95848.66;5117489;27;20055;-70
2021/10/04 04:48:50;;;;;;;14.05;8.43;;;;;;;4.86;90.92;95852.69;5109049;28;20048;-70
2021/10/04 04:51:16;;;;;;;11.73;7.32;;;;;;;4.74;90.69;95846.31;5125016;27;20039;-69
2021/10/04 04:53:45;;;;;;;12.48;7.30;;;;;;;4.79;90.88;95857.72;5128719;27;20035;-69
2021/10/04 04:56:16;;;;;;;10.35;6.15;;;;;;;4.79;90.86;95862.88;5113619;27;20051;-69
2021/10/04 04:58:43;;;;;;;11.98;5.65;;;;;;;4.82;91.09;95855.78;5120530;27;20512;-70
2021/10/04 05:01:10;;;;;;;11.00;5.55;;;;;;;4.87;91.25;95858.66;5108936;27;20504;-69
2021/10/04 05:03:37;;;;;;;9.60;5.22;;;;;;;4.90;91.72;95863.47;5108743;28;20048;-69
2021/10/04 05:06:05;;;;;;;9.60;5.80;;;;;;;4.88;92.22;95865.41;5123042;27;20039;-69
2021/10/04 05:08:32;;;;;;;15.65;6.20;;;;;;;4.92;92.65;95866.69;5124547;27;20036;-70
2021/10/04 05:10:59;;;;;;;11.65;6.65;;;;;;;4.92;93.32;95864.13;5113994;27;20116;-69
2021/10/04 05:13:25;;;;;;;11.30;5.93;;;;;;;4.92;93.50;95861.53;5128448;27;20039;-70
2021/10/04 05:15:52;;;;;;;12.05;6.32;;;;;;;5.03;93.61;95874.03;5128456;27;20039;-69
2021/10/04 05:18:19;;;;;;;19.05;6.25;;;;;;;5.01;93.88;95873.41;5127416;27;20465;-68
2021/10/04 05:20:46;;;;;;;12.13;6.70;;;;;;;4.89;94.16;95852.34;5108105;28;20683;-68
2021/10/04 05:23:13;;;;;;;11.10;6.38;;;;;;;5.07;94.69;95870.16;5110234;27;20039;-68
2021/10/04 05:25:40;;;;;;;14.70;7.15;;;;;;;5.10;95.27;95869.81;5123054;27;20963;-69
2021/10/04 05:28:07;;;;;;;12.38;6.63;;;;;;;5.15;96.19;95862.34;5113374;27;20650;-69
2021/10/04 05:30:34;;;;;;;9.13;5.70;;;;;;;5.29;96.77;95870.34;5112436;27;20049;-68
2021/10/04 05:33:01;;;;;;;10.02;7.07;;;;;;;5.42;97.82;95867.16;5120608;27;20039;-68
2021/10/04 05:35:28;;;;;;;16.88;7.95;;;;;;;5.45;98.63;95857.28;5127778;27;20051;-68
2021/10/04 05:37:55;;;;;;;19.95;9.63;;;;;;;5.63;98.99;95863.94;5118558;27;20440;-68
2021/10/04 05:40:21;;;;;;;16.25;9.57;;;;;;;5.65;99.79;95856.81;5107469;27;20092;-68
2021/10/04 05:42:49;;;;;;;19.27;9.27;;;;;;;5.81;99.80;95861.84;5108753;27;20050;-69
2021/10/04 05:45:16;;;;;;;16.83;9.55;;;;;;;5.99;98.85;95864.13;5107434;28;20092;-68
2021/10/04 05:47:43;;;;;;;19.92;9.15;;;;;;;6.09;98.81;95853.53;5107482;28;20056;-68
2021/10/04 05:50:11;;;;;;;16.70;7.95;;;;;;;6.21;98.97;95859.91;5107330;28;20044;-69
2021/10/04 05:52:38;;;;;;;13.20;7.85;;;;;;;6.20;98.72;95849.72;5116414;27;20389;-68
2021/10/04 05:55:06;;;;;;;12.98;6.80;;;;;;;6.31;98.70;95872.56;5126416;27;20427;-68
2021/10/04 05:57:33;;;;;;;12.45;6.50;;;;;;;6.29;98.71;95864.16;5107340;27;20042;-68
2021/10/04 06:00:00;;;;;;;11.02;5.85;;;;;;;6.53;98.96;95886.38;5107325;27;20043;-68
2021/10/04 06:02:32;;;;;;;14.88;6.63;;;;;;;6.61;98.44;95882.88;5107821;27;20036;-68
2021/10/04 06:04:59;;;;;;;9.52;5.78;;;;;;;6.63;98.10;95881.72;5118827;27;20153;-69
2021/10/04 06:07:25;;;;;;;11.00;6.35;;;;;;;6.77;97.42;95866.34;5116233;27;20073;-68
2021/10/04 06:09:52;;;;;;;10.27;5.93;;;;;;;6.80;97.40;95866.78;5116134;27;20039;-68
2021/10/04 06:12:24;;;;;;;10.80;6.25;;;;;;;6.93;97.21;95875.69;5114030;27;20039;-68
2021/10/04 06:14:51;;;;;;;9.75;5.80;;;;;;;7.02;97.27;95875.44;5122189;27;20039;-68
2021/10/04 06:17:18;;;;;;;9.82;5.43;;;;;;;7.06;97.11;95871.47;5107035;27;20432;-68
2021/10/04 06:19:44;;;;;;;11.48;5.22;;;;;;;7.10;97.11;95881.47;5115902;27;20044;-68
2021/10/04 06:22:11;;;;;;;8.40;4.63;;;;;;;7.16;97.44;95870.38;5105994;28;20067;-68
2021/10/04 06:24:38;;;;;;;12.50;7.03;;;;;;;7.26;97.68;95876.06;5105565;28;20032;-68
2021/10/04 06:27:05;;;;;;;11.05;6.88;;;;;;;7.34;97.20;95881.13;5105871;28;20515;-68
2021/10/04 06:29:32;;;;;;;11.15;6.30;;;;;;;7.45;97.29;95885.81;5106357;27;20035;-69
2021/10/04 06:31:59;;;;;;;11.93;6.65;;;;;;;7.52;97.15;95877.31;5110094;27;20047;-68
2021/10/04 06:34:26;;;;;;;11.35;6.45;;;;;;;7.68;95.93;95882.22;5106092;28;20039;-68
2021/10/04 06:36:52;;;;;;;14.23;7.22;;;;;;;7.85;96.05;95890.56;5106030;28;20366;-68
2021/10/04 06:39:19;;;;;;;12.98;7.07;;;;;;;7.95;95.16;95885.03;5107619;27;20032;-68
2021/10/04 06:41:46;;;;;;;15.23;6.90;;;;;;;8.11;94.49;95895.13;5107849;27;20043;-68
2021/10/04 06:44:13;;;;;;;12.88;6.22;;;;;;;8.26;93.54;95896.81;5105125;28;20070;-68
2021/10/04 06:46:57;;;;;;;11.27;5.45;;;;;;;8.34;92.82;95891.50;5106176;28;20147;-68
2021/10/04 06:49:28;;;;;;;8.15;4.85;;;;;;;8.50;92.24;95896.41;5106839;28;20112;-68
2021/10/04 06:51:55;;;;;;;11.80;6.18;;;;;;;8.53;90.79;95893.41;5106706;27;20042;-68
2021/10/04 06:54:22;;;;;;;9.57;5.88;;;;;;;8.58;90.67;95890.25;5106375;28;20036;-68
2021/10/04 06:56:49;;;;;;;9.90;5.03;;;;;;;8.60;90.40;95868.28;5108099;27;20044;-68
2021/10/04 06:59:15;;;;;;;11.90;5.97;;;;;;;8.95;89.01;95896.81;5108984;27;20047;-68
2021/10/04 07:01:42;;;;;;;9.70;5.35;;;;;;;8.97;87.96;95884.44;5105297;27;20035;-69
2021/10/04 07:04:09;;;;;;;9.30;5.55;;;;;;;9.24;86.08;95900.13;5107397;27;20079;-68
2021/10/04 07:06:36;;;;;;;16.50;7.35;;;;;;;9.44;85.44;95900.16;5101650;27;20508;-68
2021/10/04 07:09:06;;;;;;;10.70;6.00;;;;;;;9.60;83.91;95899.00;5104428;27;20146;-68
2021/10/04 07:16:38;;;;;;;15.52;6.50;;;;;;;9.80;83.80;95885.22;5110690;27;20578;-69
2021/10/04 07:19:05;;;;;;;12.07;5.88;;;;;;;9.94;82.93;95890.22;5120799;27;20500;-69
2021/10/04 07:21:33;;;;;;;10.77;5.88;;;;;;;10.09;82.63;95884.78;5127953;27;20055;-70
2021/10/04 07:23:59;;;;;;;9.23;5.05;;;;;;;10.33;82.89;95890.41;5121997;27;20042;-69
2021/10/04 07:26:27;;;;;;;9.10;5.57;;;;;;;10.56;80.93;95884.75;5115766;27;20063;-71
2021/10/04 07:28:54;;;;;;;10.82;5.32;;;;;;;10.74;78.81;95883.28;5114902;27;20028;-70
2021/10/04 07:31:21;;;;;;;9.13;4.18;;;;;;;10.87;78.48;95888.44;5118906;27;20062;-69
2021/10/04 07:33:48;;;;;;;6.90;4.30;;;;;;;11.06;77.35;95892.00;5119682;27;20043;-70
2021/10/04 07:36:15;;;;;;;8.98;5.15;;;;;;;11.27;76.16;95896.09;5120883;27;20046;-70
2021/10/04 07:38:42;;;;;;;7.18;4.88;;;;;;;11.52;75.66;95890.94;5119293;27;21820;-70
2021/10/04 07:41:09;;;;;;;13.73;5.00;;;;;;;11.73;75.42;95891.59;5121013;27;20055;-70
2021/10/04 07:43:36;;;;;;;8.38;4.90;;;;;;;11.92;74.48;95880.25;5120815;27;20043;-70
2021/10/04 07:46:06;;;;;;;9.63;4.03;;;;;;;12.09;72.52;95882.31;5099721;27;20055;-69
2021/10/04 07:48:33;;;;;;;7.22;3.85;;;;;;;12.35;71.76;95882.09;5121092;27;20452;-70
2021/10/04 07:51:01;;;;;;;17.05;4.05;;;;;;;12.55;70.79;95868.81;5100331;27;20055;-69
2021/10/04 07:53:28;;;;;;;6.32;3.33;;;;;;;12.58;69.66;95862.34;5115859;27;20705;-69
2021/10/04 07:55:56;;;;;;;6.38;3.97;;;;;;;12.75;69.26;95868.59;5115696;27;20484;-70
2021/10/04 07:58:23;;;;;;;8.02;5.07;;;;;;;12.87;70.21;95875.69;5121442;27;20136;-70
2021/10/04 08:00:50;;;;;;;6.72;4.05;;;;;;;13.01;68.86;95869.28;5091383;27;20539;-70
2021/10/04 08:03:17;;;;;;;6.53;4.20;;;;;;;13.13;67.61;95869.34;5119512;27;20061;-70
2021/10/04 08:05:44;;;;;;;7.65;3.75;;;;;;;13.30;66.30;95874.75;5099028;27;20079;-69
2021/10/04 08:08:11;;;;;;;7.47;3.40;;;;;;;13.43;67.90;95869.34;5115961;27;20104;-70
2021/10/04 08:10:37;;;;;;;4.93;3.03;;;;;;;13.60;66.64;95858.28;5118409;27;20067;-70
2021/10/04 08:13:05;;;;;;;7.22;3.83;;;;;;;13.78;65.22;95845.09;5117550;27;20035;-70
2021/10/04 08:15:32;;;;;;;5.70;3.50;;;;;;;13.91;63.41;95859.78;5114719;27;20062;-69
2021/10/04 08:17:59;;;;;;;7.78;4.35;;;;;;;13.93;63.05;95857.75;5117854;27;20118;-69
2021/10/04 08:20:26;;;;;;;4.43;3.30;;;;;;;13.92;62.88;95846.47;5118826;27;20068;-70
2021/10/04 08:22:53;;;;;;;5.15;2.88;;;;;;;14.03;62.44;95841.47;5120067;27;20532;-69
2021/10/04 08:25:20;;;;;;;4.13;2.75;;;;;;;14.31;60.24;95864.34;5119659;27;20039;-69
2021/10/04 08:27:47;;;;;;;5.47;3.05;;;;;;;14.47;59.15;95857.63;5107740;27;20044;-69
2021/10/04 08:30:14;;;;;;;4.38;3.03;;;;;;;14.69;61.69;95855.22;5104512;28;20043;-69
2021/10/04 08:32:42;;;;;;;3.22;2.47;;;;;;;14.99;56.12;95852.41;5108598;27;20387;-69
2021/10/04 08:35:09;;;;;;;3.83;2.30;;;;;;;15.13;54.03;95849.53;5105463;28;20062;-69
2021/10/04 08:37:36;;;;;;;4.28;2.22;;;;;;;15.35;54.48;95847.81;5090594;28;20047;-69
2021/10/04 08:40:08;;;;;;;5.97;3.10;;;;;;;15.55;53.33;95847.38;5105190;28;20052;-70
2021/10/04 08:42:35;;;;;;;3.78;2.55;;;;;;;15.61;53.14;95841.19;5103796;28;20051;-69
2021/10/04 08:45:03;;;;;;;3.13;2.10;;;;;;;15.76;52.78;95840.66;5105419;27;20043;-69
2021/10/04 08:47:30;;;;;;;94.63;31.77;;;;;;;15.91;53.78;95839.31;5105213;27;20047;-70
2021/10/04 08:49:58;;;;;;;12.23;6.15;;;;;;;16.01;52.45;95824.50;5104672;28;20040;-69
2021/10/04 08:52:24;;;;;;;10.98;6.07;;;;;;;16.31;53.25;95822.53;5105384;28;20043;-69
2021/10/04 08:54:51;;;;;;;6.30;3.45;;;;;;;16.53;51.49;95818.09;5105128;28;20051;-70
2021/10/04 08:57:18;;;;;;;5.78;2.83;;;;;;;16.67;50.04;95836.91;5106825;27;20643;-69
2021/10/04 08:59:45;;;;;;;4.10;2.70;;;;;;;16.68;49.21;95837.72;5106772;27;20085;-70
2021/10/04 09:02:26;;;;;;;3.47;2.45;;;;;;;16.82;49.61;95833.69;5112185;27;20055;-70
2021/10/04 09:05:09;;;;;;;6.30;2.47;;;;;;;16.88;49.58;95827.47;5109679;27;21560;-70
2021/10/04 09:07:41;;;;;;;6.30;2.67;;;;;;;16.96;49.52;95824.41;5104470;28;20035;-70
2021/10/04 09:10:10;;;;;;;6.53;2.42;;;;;;;17.18;49.73;95823.59;5106373;27;20044;-70
2021/10/04 09:12:46;;;;;;;4.28;2.75;;;;;;;17.28;47.94;95788.66;5107807;27;20044;-70
2021/10/04 09:15:32;;;;;;;3.40;2.30;;;;;;;17.84;47.21;95827.84;5104573;27;20047;-70
2021/10/04 09:18:09;;;;;;;3.63;2.92;;;;;;;18.25;46.12;95818.38;5106463;27;20038;-70
2021/10/04 09:20:57;;;;;;;4.00;2.72;;;;;;;18.37;41.97;95807.66;5107030;27;20040;-69
2021/10/04 09:28:33;;;;;;;4.97;2.40;;;;;;;18.90;39.90;95803.13;5070993;27;20125;-69
2021/10/04 09:31:16;;;;;;;3.50;2.58;;;;;;;19.21;40.70;95797.13;5068554;28;20048;-69
2021/10/04 09:34:07;;;;;;;4.65;2.58;;;;;;;19.50;41.43;95789.50;5061109;28;20506;-70
2021/10/04 09:36:40;;;;;;;2.72;2.10;;;;;;;19.94;41.71;95791.63;5067855;28;20044;-70
2021/10/04 09:39:26;;;;;;;10.50;4.93;;;;;;;20.49;42.20;95793.59;5061157;28;20049;-69
2021/10/04 09:42:10;;;;;;;3.53;2.40;;;;;;;20.95;37.73;95791.59;5062309;28;20052;-70
2021/10/04 09:45:01;;;;;;;4.38;2.45;;;;;;;21.60;37.13;95784.56;5065482;28;20052;-70
2021/10/04 09:47:33;;;;;;;3.00;2.40;;;;;;;21.70;35.66;95785.28;5063159;28;20123;-69
2021/10/04 09:50:08;;;;;;;2.10;1.50;;;;;;;21.64;34.93;95785.59;5061338;28;20049;-70
2021/10/04 09:52:51;;;;;;;5.68;2.72;;;;;;;21.59;35.70;95783.78;5063728;28;20110;-70
2021/10/04 09:55:17;;;;;;;2.78;1.77;;;;;;;21.40;36.16;95780.97;5060634;28;20056;-69
2021/10/04 09:58:01;;;;;;;3.83;2.30;;;;;;;22.02;36.11;95775.19;5061184;28;20037;-69
2021/10/04 10:00:35;;;;;;;4.45;2.42;;;;;;;22.35;35.42;95762.94;5061817;28;20520;-70
2021/10/04 10:03:04;;;;;;;3.53;1.85;;;;;;;23.15;32.57;95763.25;5061418;28;20040;-70
2021/10/04 10:05:34;;;;;;;2.83;2.00;;;;;;;23.76;31.67;95758.84;5059830;28;20049;-69
2021/10/04 10:08:01;;;;;;;4.15;2.38;;;;;;;23.44;33.54;95766.56;5059048;28;20044;-69
2021/10/04 10:10:37;;;;;;;4.13;2.65;;;;;;;23.39;33.13;95758.66;5057719;28;20131;-69
2021/10/04 10:13:09;;;;;;;4.43;2.30;;;;;;;23.21;33.54;95762.09;5065250;28;20106;-66
2021/10/04 10:15:37;;;;;;;3.55;2.55;;;;;;;23.87;32.75;95762.16;5065019;28;20033;-67
2021/10/04 10:18:23;;;;;;;4.90;3.42;;;;;;;23.76;31.97;95750.88;5064253;28;20068;-67
2021/10/04 10:20:58;;;;;;;3.03;2.38;;;;;;;24.15;29.57;95747.81;5058175;28;20033;-67
2021/10/04 10:23:56;;;;;;;6.05;2.50;;;;;;;24.56;31.17;95741.72;5058789;28;20064;-67
2021/10/04 10:26:42;;;;;;;5.53;2.17;;;;;;;24.33;31.01;95742.69;5021965;28;20053;-66
2021/10/04 10:29:08;;;;;;;5.05;2.47;;;;;;;24.45;30.58;95734.97;5058949;28;20059;-67
2021/10/04 10:31:51;;;;;;;4.18;2.80;;;;;;;25.06;28.77;95748.91;5062892;28;20044;-66
2021/10/04 16:34:39;;;;;;;4.53;2.60;;;;;;;18.69;44.66;95633.38;5082796;27;1328779;-67
2021/10/04 16:37:06;;;;;;;6.78;2.53;;;;;;;18.73;45.54;95638.94;5091743;28;20558;-67
2021/10/04 16:43:51;;;;;;;3.70;2.05;;;;;;;18.81;44.27;95646.34;4984038;28;20124;-67
2021/10/04 16:50:46;;;;;;;3.42;2.45;;;;;;;18.18;45.34;95648.28;4899796;29;20147;-68
2021/10/04 16:53:12;;;;;;;3.47;2.05;;;;;;;18.19;45.43;95655.16;5452924;23;20042;-69
2021/10/04 16:55:39;;;;;;;4.43;2.60;;;;;;;17.87;46.75;95640.28;5029839;28;20081;-69
2021/10/04 16:58:07;;;;;;;3.38;2.33;;;;;;;17.76;47.12;95653.38;5015856;28;20057;-69
2021/10/04 17:00:37;;;;;;;5.55;2.63;;;;;;;17.47;47.36;95644.25;5032614;28;20063;-69
2021/10/04 17:03:05;;;;;;;3.10;2.08;;;;;;;16.97;48.91;95662.84;5032701;28;20493;-68
2021/10/04 17:05:33;;;;;;;5.32;2.90;;;;;;;16.77;49.60;95660.81;5016290;28;20049;-68
2021/10/04 17:07:59;;;;;;;7.45;3.97;;;;;;;16.56;50.33;95657.16;5035961;28;20132;-68
2021/10/04 17:10:26;;;;;;;8.60;4.28;;;;;;;16.43;51.83;95657.56;5034839;28;20053;-69
2021/10/04 17:12:53;;;;;;;5.75;2.97;;;;;;;16.33;52.11;95667.97;5020697;28;20049;-68
2021/10/04 17:15:20;;;;;;;6.57;2.72;;;;;;;16.37;52.00;95663.84;5036485;28;20049;-68
2021/10/04 17:17:47;;;;;;;6.22;4.18;;;;;;;16.24;52.32;95665.81;5016721;28;20041;-68
2021/10/04 17:20:17;;;;;;;7.47;3.80;;;;;;;16.21;53.26;95668.91;5030291;28;20057;-68
2021/10/04 17:22:45;;;;;;;6.28;4.00;;;;;;;16.12;53.53;95673.00;5031834;28;20384;-68
2021/10/04 17:25:13;;;;;;;5.15;3.10;;;;;;;16.18;52.81;95672.03;5030546;28;20479;-68
2021/10/04 17:27:41;;;;;;;7.20;2.67;;;;;;;15.89;54.32;95668.00;5037248;28;20044;-69
2021/10/04 17:30:10;;;;;;;7.03;3.05;;;;;;;15.70;55.81;95665.63;5036983;28;20061;-68
2021/10/04 17:32:37;;;;;;;3.63;2.67;;;;;;;15.58;56.27;95670.19;5036733;28;20052;-69
2021/10/04 17:35:05;;;;;;;3.90;3.05;;;;;;;15.24;57.30;95662.34;5015418;28;20489;-69
2021/10/04 17:37:33;;;;;;;15.32;3.50;;;;;;;14.89;59.67;95673.84;5033423;28;20045;-68
2021/10/04 17:40:00;;;;;;;3.53;2.63;;;;;;;14.75;59.51;95669.94;5033390;28;20136;-69
2021/10/04 17:42:28;;;;;;;3.53;2.80;;;;;;;14.64;60.32;95669.78;5030915;28;20045;-69
2021/10/04 17:44:56;;;;;;;5.22;3.00;;;;;;;14.58;60.63;95675.94;5025195;28;20036;-69
2021/10/04 17:47:25;;;;;;;3.67;2.42;;;;;;;14.30;61.30;95653.94;5014717;28;20061;-68
2021/10/04 17:49:53;;;;;;;4.55;2.70;;;;;;;14.52;60.66;95676.88;5020038;28;20383;-68
2021/10/04 17:52:20;;;;;;;4.35;3.20;;;;;;;14.09;62.51;95673.69;5021452;28;20060;-68
2021/10/04 17:54:47;;;;;;;4.18;3.13;;;;;;;14.05;62.96;95682.28;4998403;28;20463;-68
2021/10/04 17:57:14;;;;;;;2.85;2.03;;;;;;;13.79;63.98;95675.72;5016702;28;20049;-69
2021/10/04 17:59:41;;;;;;;4.43;2.78;;;;;;;13.56;65.40;95680.75;5017096;28;20056;-69
2021/10/04 18:02:09;;;;;;;4.05;3.05;;;;;;;13.42;66.05;95689.84;5016171;28;20067;-68